Grobbendonk, Belgium
Current Conditions -  °F | °C
As of 11:20 AM on Thursday 29 Jan 2015 (Local Time) from EBAW Reporting Station
Scattered Clouds Scattered Clouds  
Wind Chill: 31°   Ceiling: Unl
Heat Index: 39°   Visibility: 6mi
Dew Point: 32°   Wind: 15mph
Humidity: 75%   Direction: 230°SW
Pressure: 29.18"   Gusts: NA
Location:  51.19°N, 4.74°E
Report Text: EBAW 291020Z 23013KT 9999 FEW016 SCT033 04/00 Q0988 NOSIG
Loading
Personal Weather Stations






























Interactive Weather Map New forecast layout! Learn more

10-Day Weather Forecast

Advertisements
Track Severe Weather on mobile